sensor_id;sensor_type;location;lat;lon;timestamp;P1;durP1;ratioP1;P2;durP2;ratioP2
15454;SDS011;21057;51.024;7.540;2022-09-30T00:01:24;23.90;;;22.40;;
15454;SDS011;21057;51.024;7.540;2022-09-30T00:03:53;23.20;;;21.80;;
15454;SDS011;21057;51.024;7.540;2022-09-30T00:06:20;24.53;;;23.03;;
15454;SDS011;21057;51.024;7.540;2022-09-30T00:08:48;24.40;;;22.47;;
15454;SDS011;21057;51.024;7.540;2022-09-30T00:11:15;22.97;;;21.67;;
15454;SDS011;21057;51.024;7.540;2022-09-30T00:13:44;24.30;;;22.80;;
15454;SDS011;21057;51.024;7.540;2022-09-30T00:16:13;24.67;;;22.93;;
15454;SDS011;21057;51.024;7.540;2022-09-30T00:18:41;23.20;;;21.90;;
15454;SDS011;21057;51.024;7.540;2022-09-30T00:21:11;24.53;;;22.97;;
15454;SDS011;21057;51.024;7.540;2022-09-30T00:23:39;23.30;;;21.90;;
15454;SDS011;21057;51.024;7.540;2022-09-30T00:26:07;23.50;;;22.20;;
15454;SDS011;21057;51.024;7.540;2022-09-30T00:28:37;24.30;;;22.40;;
15454;SDS011;21057;51.024;7.540;2022-09-30T00:31:05;24.23;;;22.70;;
15454;SDS011;21057;51.024;7.540;2022-09-30T00:33:34;22.23;;;21.03;;
15454;SDS011;21057;51.024;7.540;2022-09-30T00:36:01;24.00;;;22.53;;
15454;SDS011;21057;51.024;7.540;2022-09-30T00:38:30;23.73;;;22.33;;
15454;SDS011;21057;51.024;7.540;2022-09-30T00:40:57;26.23;;;24.10;;
15454;SDS011;21057;51.024;7.540;2022-09-30T00:43:37;23.70;;;22.30;;
15454;SDS011;21057;51.024;7.540;2022-09-30T00:46:08;24.73;;;23.30;;
15454;SDS011;21057;51.024;7.540;2022-09-30T00:48:43;24.50;;;23.10;;
15454;SDS011;21057;51.024;7.540;2022-09-30T00:51:15;24.27;;;22.90;;
15454;SDS011;21057;51.024;7.540;2022-09-30T00:53:45;25.60;;;24.10;;
15454;SDS011;21057;51.024;7.540;2022-09-30T00:56:16;23.40;;;22.10;;
15454;SDS011;21057;51.024;7.540;2022-09-30T00:58:47;23.70;;;22.30;;
15454;SDS011;21057;51.024;7.540;2022-09-30T01:01:17;24.37;;;22.87;;
15454;SDS011;21057;51.024;7.540;2022-09-30T01:03:46;23.63;;;22.33;;
15454;SDS011;21057;51.024;7.540;2022-09-30T01:06:16;23.87;;;22.47;;
15454;SDS011;21057;51.024;7.540;2022-09-30T01:08:44;25.27;;;23.53;;
15454;SDS011;21057;51.024;7.540;2022-09-30T01:11:12;26.23;;;24.53;;
15454;SDS011;21057;51.024;7.540;2022-09-30T01:13:39;25.50;;;24.00;;
15454;SDS011;21057;51.024;7.540;2022-09-30T01:16:20;26.13;;;24.57;;
15454;SDS011;21057;51.024;7.540;2022-09-30T01:19:00;24.17;;;22.80;;
15454;SDS011;21057;51.024;7.540;2022-09-30T01:24:49;24.97;;;23.37;;
15454;SDS011;21057;51.024;7.540;2022-09-30T01:27:46;23.40;;;22.10;;
15454;SDS011;21057;51.024;7.540;2022-09-30T01:30:41;25.10;;;23.40;;
15454;SDS011;21057;51.024;7.540;2022-09-30T01:33:20;23.67;;;22.43;;
15454;SDS011;21057;51.024;7.540;2022-09-30T01:36:09;25.10;;;23.60;;
15454;SDS011;21057;51.024;7.540;2022-09-30T01:38:53;24.77;;;23.37;;
15454;SDS011;21057;51.024;7.540;2022-09-30T01:41:29;24.63;;;23.23;;
15454;SDS011;21057;51.024;7.540;2022-09-30T01:44:09;24.20;;;22.73;;
15454;SDS011;21057;51.024;7.540;2022-09-30T01:46:43;26.40;;;24.80;;
15454;SDS011;21057;51.024;7.540;2022-09-30T01:49:16;25.77;;;24.33;;
15454;SDS011;21057;51.024;7.540;2022-09-30T01:51:50;25.63;;;23.90;;
15454;SDS011;21057;51.024;7.540;2022-09-30T01:54:24;27.03;;;25.33;;
15454;SDS011;21057;51.024;7.540;2022-09-30T01:56:57;26.33;;;24.83;;
15454;SDS011;21057;51.024;7.540;2022-09-30T01:59:33;25.33;;;23.93;;
15454;SDS011;21057;51.024;7.540;2022-09-30T02:02:07;25.10;;;23.80;;
15454;SDS011;21057;51.024;7.540;2022-09-30T02:04:40;27.03;;;24.80;;
15454;SDS011;21057;51.024;7.540;2022-09-30T02:07:11;25.13;;;23.63;;
15454;SDS011;21057;51.024;7.540;2022-09-30T02:09:42;25.33;;;23.83;;
15454;SDS011;21057;51.024;7.540;2022-09-30T02:12:14;24.70;;;23.40;;
15454;SDS011;21057;51.024;7.540;2022-09-30T02:14:46;25.63;;;24.00;;
15454;SDS011;21057;51.024;7.540;2022-09-30T02:17:18;24.30;;;23.00;;
15454;SDS011;21057;51.024;7.540;2022-09-30T02:19:49;24.33;;;22.93;;
15454;SDS011;21057;51.024;7.540;2022-09-30T02:22:20;24.33;;;22.87;;
15454;SDS011;21057;51.024;7.540;2022-09-30T02:24:54;23.93;;;22.53;;
15454;SDS011;21057;51.024;7.540;2022-09-30T02:27:24;24.80;;;23.50;;
15454;SDS011;21057;51.024;7.540;2022-09-30T02:29:57;25.80;;;24.10;;
15454;SDS011;21057;51.024;7.540;2022-09-30T02:32:30;24.60;;;23.30;;
15454;SDS011;21057;51.024;7.540;2022-09-30T02:35:03;24.70;;;23.23;;
15454;SDS011;21057;51.024;7.540;2022-09-30T02:37:35;24.67;;;23.37;;
15454;SDS011;21057;51.024;7.540;2022-09-30T02:40:05;24.63;;;23.23;;
15454;SDS011;21057;51.024;7.540;2022-09-30T02:42:36;24.77;;;23.37;;
15454;SDS011;21057;51.024;7.540;2022-09-30T02:45:06;23.00;;;21.53;;
15454;SDS011;21057;51.024;7.540;2022-09-30T02:47:41;23.10;;;21.80;;
15454;SDS011;21057;51.024;7.540;2022-09-30T02:50:17;23.60;;;22.30;;
15454;SDS011;21057;51.024;7.540;2022-09-30T02:52:53;23.50;;;22.00;;
15454;SDS011;21057;51.024;7.540;2022-09-30T02:55:29;22.40;;;21.20;;
15454;SDS011;21057;51.024;7.540;2022-09-30T02:58:00;22.90;;;21.60;;
15454;SDS011;21057;51.024;7.540;2022-09-30T03:00:33;22.73;;;21.50;;
15454;SDS011;21057;51.024;7.540;2022-09-30T03:03:02;23.27;;;21.87;;
15454;SDS011;21057;51.024;7.540;2022-09-30T03:05:32;22.80;;;21.53;;
15454;SDS011;21057;51.024;7.540;2022-09-30T03:08:00;23.13;;;21.80;;
15454;SDS011;21057;51.024;7.540;2022-09-30T03:10:27;23.80;;;22.47;;
15454;SDS011;21057;51.024;7.540;2022-09-30T03:13:05;24.60;;;23.10;;
15454;SDS011;21057;51.024;7.540;2022-09-30T03:15:44;23.47;;;22.27;;
15454;SDS011;21057;51.024;7.540;2022-09-30T03:18:25;23.93;;;22.57;;
15454;SDS011;21057;51.024;7.540;2022-09-30T03:21:04;23.80;;;22.43;;
15454;SDS011;21057;51.024;7.540;2022-09-30T03:26:46;24.20;;;23.00;;
15454;SDS011;21057;51.024;7.540;2022-09-30T03:29:23;24.93;;;23.63;;
15454;SDS011;21057;51.024;7.540;2022-09-30T03:32:00;24.53;;;23.20;;
15454;SDS011;21057;51.024;7.540;2022-09-30T03:34:39;25.83;;;24.37;;
15454;SDS011;21057;51.024;7.540;2022-09-30T03:37:24;25.90;;;24.40;;
15454;SDS011;21057;51.024;7.540;2022-09-30T03:39:58;25.40;;;24.00;;
15454;SDS011;21057;51.024;7.540;2022-09-30T03:42:32;26.80;;;25.40;;
15454;SDS011;21057;51.024;7.540;2022-09-30T03:45:03;26.43;;;24.93;;
15454;SDS011;21057;51.024;7.540;2022-09-30T03:47:36;25.60;;;24.10;;
15454;SDS011;21057;51.024;7.540;2022-09-30T03:50:11;26.37;;;24.87;;
15454;SDS011;21057;51.024;7.540;2022-09-30T03:52:42;24.90;;;23.60;;
15454;SDS011;21057;51.024;7.540;2022-09-30T03:55:08;24.40;;;23.10;;
15454;SDS011;21057;51.024;7.540;2022-09-30T03:57:36;24.77;;;23.47;;
15454;SDS011;21057;51.024;7.540;2022-09-30T04:00:04;25.07;;;23.67;;
15454;SDS011;21057;51.024;7.540;2022-09-30T04:02:32;23.70;;;22.40;;
15454;SDS011;21057;51.024;7.540;2022-09-30T04:05:00;24.27;;;22.87;;
15454;SDS011;21057;51.024;7.540;2022-09-30T04:07:28;26.17;;;24.70;;
15454;SDS011;21057;51.024;7.540;2022-09-30T04:09:55;29.97;;;27.80;;
15454;SDS011;21057;51.024;7.540;2022-09-30T04:12:22;28.27;;;26.27;;
15454;SDS011;21057;51.024;7.540;2022-09-30T04:14:49;26.00;;;24.53;;
15454;SDS011;21057;51.024;7.540;2022-09-30T04:17:16;26.53;;;24.90;;
15454;SDS011;21057;51.024;7.540;2022-09-30T04:19:43;27.30;;;25.80;;
15454;SDS011;21057;51.024;7.540;2022-09-30T04:22:10;26.23;;;24.60;;
15454;SDS011;21057;51.024;7.540;2022-09-30T04:24:38;26.53;;;25.03;;
15454;SDS011;21057;51.024;7.540;2022-09-30T04:27:05;25.27;;;23.87;;
15454;SDS011;21057;51.024;7.540;2022-09-30T04:29:32;26.30;;;24.87;;
15454;SDS011;21057;51.024;7.540;2022-09-30T04:31:59;25.20;;;23.77;;
15454;SDS011;21057;51.024;7.540;2022-09-30T04:34:26;24.87;;;23.57;;
15454;SDS011;21057;51.024;7.540;2022-09-30T04:36:53;25.10;;;23.70;;
15454;SDS011;21057;51.024;7.540;2022-09-30T04:39:20;26.30;;;24.80;;
15454;SDS011;21057;51.024;7.540;2022-09-30T04:41:48;26.83;;;25.23;;
15454;SDS011;21057;51.024;7.540;2022-09-30T04:44:17;25.50;;;24.10;;
15454;SDS011;21057;51.024;7.540;2022-09-30T04:46:45;25.00;;;23.40;;
15454;SDS011;21057;51.024;7.540;2022-09-30T04:49:12;26.20;;;24.70;;
15454;SDS011;21057;51.024;7.540;2022-09-30T04:51:39;26.77;;;25.23;;
15454;SDS011;21057;51.024;7.540;2022-09-30T04:54:10;28.33;;;26.73;;
15454;SDS011;21057;51.024;7.540;2022-09-30T04:56:37;27.10;;;25.50;;
15454;SDS011;21057;51.024;7.540;2022-09-30T04:59:05;28.93;;;27.33;;
15454;SDS011;21057;51.024;7.540;2022-09-30T05:01:32;28.90;;;27.20;;
15454;SDS011;21057;51.024;7.540;2022-09-30T05:04:00;27.60;;;26.10;;
15454;SDS011;21057;51.024;7.540;2022-09-30T05:06:27;26.50;;;25.10;;
15454;SDS011;21057;51.024;7.540;2022-09-30T05:08:54;27.13;;;25.67;;
15454;SDS011;21057;51.024;7.540;2022-09-30T05:11:21;26.40;;;25.00;;
15454;SDS011;21057;51.024;7.540;2022-09-30T05:13:48;25.60;;;24.30;;
15454;SDS011;21057;51.024;7.540;2022-09-30T05:16:16;26.30;;;24.90;;
15454;SDS011;21057;51.024;7.540;2022-09-30T05:18:44;27.60;;;25.80;;
15454;SDS011;21057;51.024;7.540;2022-09-30T05:21:11;25.53;;;24.13;;
15454;SDS011;21057;51.024;7.540;2022-09-30T05:23:39;27.40;;;25.87;;
15454;SDS011;21057;51.024;7.540;2022-09-30T05:26:06;26.73;;;25.23;;
15454;SDS011;21057;51.024;7.540;2022-09-30T05:28:33;26.07;;;24.67;;
15454;SDS011;21057;51.024;7.540;2022-09-30T05:31:03;26.17;;;24.77;;
15454;SDS011;21057;51.024;7.540;2022-09-30T05:33:32;27.57;;;25.87;;
15454;SDS011;21057;51.024;7.540;2022-09-30T05:36:00;25.97;;;24.57;;
15454;SDS011;21057;51.024;7.540;2022-09-30T05:38:29;25.77;;;24.37;;
15454;SDS011;21057;51.024;7.540;2022-09-30T05:40:56;26.03;;;24.63;;
15454;SDS011;21057;51.024;7.540;2022-09-30T05:43:23;26.40;;;24.90;;
15454;SDS011;21057;51.024;7.540;2022-09-30T05:45:50;25.57;;;24.07;;
15454;SDS011;21057;51.024;7.540;2022-09-30T05:48:19;26.57;;;25.03;;
15454;SDS011;21057;51.024;7.540;2022-09-30T05:50:47;27.80;;;25.53;;
15454;SDS011;21057;51.024;7.540;2022-09-30T05:53:15;27.13;;;25.47;;
15454;SDS011;21057;51.024;7.540;2022-09-30T05:55:44;27.67;;;26.17;;
15454;SDS011;21057;51.024;7.540;2022-09-30T05:58:12;26.83;;;25.30;;
15454;SDS011;21057;51.024;7.540;2022-09-30T06:00:39;27.10;;;25.70;;
15454;SDS011;21057;51.024;7.540;2022-09-30T06:03:07;27.43;;;25.83;;
15454;SDS011;21057;51.024;7.540;2022-09-30T06:05:34;27.23;;;25.70;;
15454;SDS011;21057;51.024;7.540;2022-09-30T06:08:02;27.03;;;25.53;;
15454;SDS011;21057;51.024;7.540;2022-09-30T06:10:31;28.27;;;26.60;;
15454;SDS011;21057;51.024;7.540;2022-09-30T06:12:58;27.37;;;25.83;;
15454;SDS011;21057;51.024;7.540;2022-09-30T06:15:25;27.03;;;25.63;;
15454;SDS011;21057;51.024;7.540;2022-09-30T06:17:53;26.73;;;25.33;;
15454;SDS011;21057;51.024;7.540;2022-09-30T06:20:20;27.03;;;25.43;;
15454;SDS011;21057;51.024;7.540;2022-09-30T06:22:47;28.57;;;26.97;;
15454;SDS011;21057;51.024;7.540;2022-09-30T06:25:16;27.60;;;26.10;;
15454;SDS011;21057;51.024;7.540;2022-09-30T06:27:43;25.93;;;24.43;;
15454;SDS011;21057;51.024;7.540;2022-09-30T06:30:11;28.00;;;26.50;;
15454;SDS011;21057;51.024;7.540;2022-09-30T06:32:38;26.20;;;24.80;;
15454;SDS011;21057;51.024;7.540;2022-09-30T06:35:07;27.83;;;26.20;;
15454;SDS011;21057;51.024;7.540;2022-09-30T06:37:35;27.27;;;25.70;;
15454;SDS011;21057;51.024;7.540;2022-09-30T06:40:03;29.33;;;27.57;;
15454;SDS011;21057;51.024;7.540;2022-09-30T06:42:33;27.77;;;26.07;;
15454;SDS011;21057;51.024;7.540;2022-09-30T06:45:00;26.90;;;25.30;;
15454;SDS011;21057;51.024;7.540;2022-09-30T06:47:27;26.90;;;25.20;;
15454;SDS011;21057;51.024;7.540;2022-09-30T06:49:55;26.43;;;24.83;;
15454;SDS011;21057;51.024;7.540;2022-09-30T06:52:23;27.10;;;25.50;;
15454;SDS011;21057;51.024;7.540;2022-09-30T06:54:51;27.30;;;25.63;;
15454;SDS011;21057;51.024;7.540;2022-09-30T06:57:20;27.93;;;26.30;;
15454;SDS011;21057;51.024;7.540;2022-09-30T06:59:50;28.33;;;26.60;;
15454;SDS011;21057;51.024;7.540;2022-09-30T07:02:17;29.17;;;27.47;;
15454;SDS011;21057;51.024;7.540;2022-09-30T07:04:47;26.13;;;24.50;;
15454;SDS011;21057;51.024;7.540;2022-09-30T07:07:14;28.13;;;25.97;;
15454;SDS011;21057;51.024;7.540;2022-09-30T07:09:41;27.47;;;25.97;;
15454;SDS011;21057;51.024;7.540;2022-09-30T07:12:08;29.27;;;27.47;;
15454;SDS011;21057;51.024;7.540;2022-09-30T07:14:35;29.90;;;28.10;;
15454;SDS011;21057;51.024;7.540;2022-09-30T07:17:03;28.57;;;26.97;;
15454;SDS011;21057;51.024;7.540;2022-09-30T07:19:31;28.17;;;26.07;;
15454;SDS011;21057;51.024;7.540;2022-09-30T07:21:58;27.70;;;26.03;;
15454;SDS011;21057;51.024;7.540;2022-09-30T07:24:46;28.37;;;26.77;;
15454;SDS011;21057;51.024;7.540;2022-09-30T07:27:12;27.93;;;26.33;;
15454;SDS011;21057;51.024;7.540;2022-09-30T07:29:39;29.17;;;27.20;;
15454;SDS011;21057;51.024;7.540;2022-09-30T07:32:08;28.80;;;26.77;;
15454;SDS011;21057;51.024;7.540;2022-09-30T07:34:36;28.37;;;26.60;;
15454;SDS011;21057;51.024;7.540;2022-09-30T07:37:06;28.13;;;26.43;;
15454;SDS011;21057;51.024;7.540;2022-09-30T07:39:34;29.37;;;27.57;;
15454;SDS011;21057;51.024;7.540;2022-09-30T07:42:01;29.63;;;27.43;;
15454;SDS011;21057;51.024;7.540;2022-09-30T07:44:28;28.27;;;26.53;;
15454;SDS011;21057;51.024;7.540;2022-09-30T07:46:55;28.70;;;26.80;;
15454;SDS011;21057;51.024;7.540;2022-09-30T07:49:24;29.43;;;27.23;;
15454;SDS011;21057;51.024;7.540;2022-09-30T07:51:51;29.97;;;27.03;;
15454;SDS011;21057;51.024;7.540;2022-09-30T07:54:20;28.30;;;26.60;;
15454;SDS011;21057;51.024;7.540;2022-09-30T07:56:48;28.30;;;26.50;;
15454;SDS011;21057;51.024;7.540;2022-09-30T07:59:16;29.23;;;27.13;;
15454;SDS011;21057;51.024;7.540;2022-09-30T08:01:44;29.83;;;28.03;;
15454;SDS011;21057;51.024;7.540;2022-09-30T08:04:12;31.10;;;28.90;;
15454;SDS011;21057;51.024;7.540;2022-09-30T08:06:42;29.33;;;27.40;;
15454;SDS011;21057;51.024;7.540;2022-09-30T08:09:10;30.90;;;28.73;;
15454;SDS011;21057;51.024;7.540;2022-09-30T08:11:38;30.30;;;28.13;;
15454;SDS011;21057;51.024;7.540;2022-09-30T08:14:07;30.30;;;28.40;;
15454;SDS011;21057;51.024;7.540;2022-09-30T08:16:38;30.77;;;28.70;;
15454;SDS011;21057;51.024;7.540;2022-09-30T08:19:05;31.73;;;29.57;;
15454;SDS011;21057;51.024;7.540;2022-09-30T08:21:33;31.33;;;29.23;;
15454;SDS011;21057;51.024;7.540;2022-09-30T08:24:02;33.03;;;30.93;;
15454;SDS011;21057;51.024;7.540;2022-09-30T08:26:29;31.80;;;29.80;;
15454;SDS011;21057;51.024;7.540;2022-09-30T08:28:56;32.33;;;30.17;;
15454;SDS011;21057;51.024;7.540;2022-09-30T08:31:23;31.47;;;28.97;;
15454;SDS011;21057;51.024;7.540;2022-09-30T08:33:50;31.07;;;28.63;;
15454;SDS011;21057;51.024;7.540;2022-09-30T08:36:18;31.67;;;29.50;;
15454;SDS011;21057;51.024;7.540;2022-09-30T08:38:47;31.13;;;28.93;;
15454;SDS011;21057;51.024;7.540;2022-09-30T08:41:22;34.20;;;31.60;;
15454;SDS011;21057;51.024;7.540;2022-09-30T08:44:05;30.83;;;28.33;;
15454;SDS011;21057;51.024;7.540;2022-09-30T08:46:46;31.50;;;29.20;;
15454;SDS011;21057;51.024;7.540;2022-09-30T08:49:24;31.77;;;29.43;;
15454;SDS011;21057;51.024;7.540;2022-09-30T08:52:10;31.10;;;28.93;;
15454;SDS011;21057;51.024;7.540;2022-09-30T08:54:40;32.07;;;29.70;;
15454;SDS011;21057;51.024;7.540;2022-09-30T08:57:13;32.23;;;30.00;;
15454;SDS011;21057;51.024;7.540;2022-09-30T08:59:41;31.93;;;29.50;;
15454;SDS011;21057;51.024;7.540;2022-09-30T09:02:14;30.53;;;28.30;;
15454;SDS011;21057;51.024;7.540;2022-09-30T09:04:45;30.83;;;28.60;;
15454;SDS011;21057;51.024;7.540;2022-09-30T09:07:16;31.07;;;28.77;;
15454;SDS011;21057;51.024;7.540;2022-09-30T09:10:02;30.67;;;28.27;;
15454;SDS011;21057;51.024;7.540;2022-09-30T09:12:45;30.23;;;27.67;;
15454;SDS011;21057;51.024;7.540;2022-09-30T09:15:31;28.77;;;26.50;;
15454;SDS011;21057;51.024;7.540;2022-09-30T09:21:13;28.53;;;26.63;;
15454;SDS011;21057;51.024;7.540;2022-09-30T09:23:49;27.03;;;25.13;;
15454;SDS011;21057;51.024;7.540;2022-09-30T09:26:18;27.23;;;25.33;;
15454;SDS011;21057;51.024;7.540;2022-09-30T09:28:50;28.13;;;26.13;;
15454;SDS011;21057;51.024;7.540;2022-09-30T09:31:28;27.13;;;25.03;;
15454;SDS011;21057;51.024;7.540;2022-09-30T09:33:55;27.60;;;25.07;;
15454;SDS011;21057;51.024;7.540;2022-09-30T09:36:31;26.13;;;24.33;;
15454;SDS011;21057;51.024;7.540;2022-09-30T09:39:18;24.80;;;23.00;;
15454;SDS011;21057;51.024;7.540;2022-09-30T09:42:03;25.43;;;23.47;;
15454;SDS011;21057;51.024;7.540;2022-09-30T09:44:47;23.60;;;22.00;;
15454;SDS011;21057;51.024;7.540;2022-09-30T09:47:20;23.07;;;21.43;;
15454;SDS011;21057;51.024;7.540;2022-09-30T09:49:49;22.80;;;21.30;;
15454;SDS011;21057;51.024;7.540;2022-09-30T09:55:21;22.50;;;21.00;;
15454;SDS011;21057;51.024;7.540;2022-09-30T09:58:01;22.83;;;21.13;;
15454;SDS011;21057;51.024;7.540;2022-09-30T10:00:32;22.15;;;20.75;;
15454;SDS011;21057;51.024;7.540;2022-09-30T10:03:17;21.63;;;19.80;;
15454;SDS011;21057;51.024;7.540;2022-09-30T10:05:57;21.63;;;20.33;;
15454;SDS011;21057;51.024;7.540;2022-09-30T10:08:26;21.70;;;19.92;;
15454;SDS011;21057;51.024;7.540;2022-09-30T10:10:56;21.77;;;20.27;;
15454;SDS011;21057;51.024;7.540;2022-09-30T10:13:26;20.77;;;19.48;;
15454;SDS011;21057;51.024;7.540;2022-09-30T10:15:58;20.95;;;19.45;;
15454;SDS011;21057;51.024;7.540;2022-09-30T10:18:26;20.63;;;19.33;;
15454;SDS011;21057;51.024;7.540;2022-09-30T10:20:57;21.27;;;19.60;;
15454;SDS011;21057;51.024;7.540;2022-09-30T10:23:26;20.25;;;18.85;;
15454;SDS011;21057;51.024;7.540;2022-09-30T10:25:55;20.92;;;19.63;;
15454;SDS011;21057;51.024;7.540;2022-09-30T10:28:25;20.40;;;19.20;;
15454;SDS011;21057;51.024;7.540;2022-09-30T10:30:59;20.50;;;19.17;;
15454;SDS011;21057;51.024;7.540;2022-09-30T10:33:35;20.80;;;19.50;;
15454;SDS011;21057;51.024;7.540;2022-09-30T10:36:18;20.25;;;19.05;;
15454;SDS011;21057;51.024;7.540;2022-09-30T10:38:52;21.08;;;19.73;;
15454;SDS011;21057;51.024;7.540;2022-09-30T10:41:25;21.45;;;19.90;;
15454;SDS011;21057;51.024;7.540;2022-09-30T10:43:54;20.50;;;19.10;;
15454;SDS011;21057;51.024;7.540;2022-09-30T10:46:26;21.40;;;19.55;;
15454;SDS011;21057;51.024;7.540;2022-09-30T10:48:55;20.95;;;19.65;;
15454;SDS011;21057;51.024;7.540;2022-09-30T10:51:28;20.45;;;19.05;;
15454;SDS011;21057;51.024;7.540;2022-09-30T10:54:00;20.38;;;19.17;;
15454;SDS011;21057;51.024;7.540;2022-09-30T10:56:35;20.20;;;18.63;;
15454;SDS011;21057;51.024;7.540;2022-09-30T10:59:26;19.55;;;18.35;;
15454;SDS011;21057;51.024;7.540;2022-09-30T11:02:03;19.80;;;18.55;;
15454;SDS011;21057;51.024;7.540;2022-09-30T11:04:42;20.10;;;18.90;;
15454;SDS011;21057;51.024;7.540;2022-09-30T11:07:13;19.92;;;18.73;;
15454;SDS011;21057;51.024;7.540;2022-09-30T11:09:46;19.70;;;18.52;;
15454;SDS011;21057;51.024;7.540;2022-09-30T11:12:20;19.55;;;18.45;;
15454;SDS011;21057;51.024;7.540;2022-09-30T11:14:56;19.52;;;18.33;;
15454;SDS011;21057;51.024;7.540;2022-09-30T11:17:35;19.58;;;18.35;;
15454;SDS011;21057;51.024;7.540;2022-09-30T11:20:12;19.23;;;18.02;;
15454;SDS011;21057;51.024;7.540;2022-09-30T11:22:45;20.23;;;19.02;;
15454;SDS011;21057;51.024;7.540;2022-09-30T11:25:21;19.13;;;17.90;;
15454;SDS011;21057;51.024;7.540;2022-09-30T11:28:01;19.63;;;18.42;;
15454;SDS011;21057;51.024;7.540;2022-09-30T11:30:50;20.40;;;19.20;;
15454;SDS011;21057;51.024;7.540;2022-09-30T11:33:31;20.00;;;18.77;;
15454;SDS011;21057;51.024;7.540;2022-09-30T11:36:10;19.70;;;18.50;;
15454;SDS011;21057;51.024;7.540;2022-09-30T11:38:56;20.23;;;19.02;;
15454;SDS011;21057;51.024;7.540;2022-09-30T11:41:44;20.40;;;19.08;;
15454;SDS011;21057;51.024;7.540;2022-09-30T11:44:20;20.33;;;18.98;;
15454;SDS011;21057;51.024;7.540;2022-09-30T11:47:01;20.13;;;18.90;;
15454;SDS011;21057;51.024;7.540;2022-09-30T11:52:50;18.88;;;17.77;;
15454;SDS011;21057;51.024;7.540;2022-09-30T11:55:41;19.42;;;18.13;;
15454;SDS011;21057;51.024;7.540;2022-09-30T11:58:17;20.52;;;19.23;;
15454;SDS011;21057;51.024;7.540;2022-09-30T12:00:48;19.55;;;18.35;;
15454;SDS011;21057;51.024;7.540;2022-09-30T12:03:21;19.55;;;18.35;;
15454;SDS011;21057;51.024;7.540;2022-09-30T12:05:56;20.10;;;18.90;;
15454;SDS011;21057;51.024;7.540;2022-09-30T12:08:28;19.55;;;18.25;;
15454;SDS011;21057;51.024;7.540;2022-09-30T12:10:57;19.92;;;18.63;;
15454;SDS011;21057;51.024;7.540;2022-09-30T12:13:30;20.25;;;18.95;;
15454;SDS011;21057;51.024;7.540;2022-09-30T12:16:00;19.77;;;18.58;;
15454;SDS011;21057;51.024;7.540;2022-09-30T12:18:29;20.25;;;18.85;;
15454;SDS011;21057;51.024;7.540;2022-09-30T12:21:02;20.38;;;19.08;;
15454;SDS011;21057;51.024;7.540;2022-09-30T12:23:37;20.75;;;19.40;;
15454;SDS011;21057;51.024;7.540;2022-09-30T12:26:14;20.63;;;19.13;;
15454;SDS011;21057;51.024;7.540;2022-09-30T12:28:43;20.25;;;18.95;;
15454;SDS011;21057;51.024;7.540;2022-09-30T12:31:44;20.00;;;18.70;;
15454;SDS011;21057;51.024;7.540;2022-09-30T12:34:30;20.05;;;18.65;;
15454;SDS011;21057;51.024;7.540;2022-09-30T12:37:13;19.65;;;18.38;;
15454;SDS011;21057;51.024;7.540;2022-09-30T12:40:03;19.70;;;18.38;;
15454;SDS011;21057;51.024;7.540;2022-09-30T12:42:59;20.13;;;18.90;;
15454;SDS011;21057;51.024;7.540;2022-09-30T12:48:44;20.00;;;18.60;;
15454;SDS011;21057;51.024;7.540;2022-09-30T12:51:22;19.77;;;18.58;;
15454;SDS011;21057;51.024;7.540;2022-09-30T12:53:56;20.30;;;19.10;;
15454;SDS011;21057;51.024;7.540;2022-09-30T12:56:27;20.02;;;18.73;;
15454;SDS011;21057;51.024;7.540;2022-09-30T12:58:55;19.85;;;18.65;;
15454;SDS011;21057;51.024;7.540;2022-09-30T13:01:24;20.05;;;18.70;;
15454;SDS011;21057;51.024;7.540;2022-09-30T13:04:09;18.90;;;17.80;;
15454;SDS011;21057;51.024;7.540;2022-09-30T13:07:05;20.42;;;19.02;;
15454;SDS011;21057;51.024;7.540;2022-09-30T13:09:54;19.92;;;18.58;;
15454;SDS011;21057;51.024;7.540;2022-09-30T13:12:26;19.73;;;18.42;;
15454;SDS011;21057;51.024;7.540;2022-09-30T13:15:21;20.50;;;19.20;;
15454;SDS011;21057;51.024;7.540;2022-09-30T13:21:17;19.30;;;17.95;;
15454;SDS011;21057;51.024;7.540;2022-09-30T13:23:46;18.90;;;17.70;;
15454;SDS011;21057;51.024;7.540;2022-09-30T13:26:35;19.38;;;18.17;;
15454;SDS011;21057;51.024;7.540;2022-09-30T13:32:01;20.00;;;18.70;;
15454;SDS011;21057;51.024;7.540;2022-09-30T13:34:30;20.10;;;18.67;;
15454;SDS011;21057;51.024;7.540;2022-09-30T13:36:58;20.13;;;18.83;;
15454;SDS011;21057;51.024;7.540;2022-09-30T13:39:27;19.52;;;18.33;;
15454;SDS011;21057;51.024;7.540;2022-09-30T13:42:09;19.63;;;18.42;;
15454;SDS011;21057;51.024;7.540;2022-09-30T13:45:02;20.27;;;18.90;;
15454;SDS011;21057;51.024;7.540;2022-09-30T13:47:38;19.70;;;18.40;;
15454;SDS011;21057;51.024;7.540;2022-09-30T13:50:12;19.95;;;18.65;;
15454;SDS011;21057;51.024;7.540;2022-09-30T13:52:44;20.33;;;18.95;;
15454;SDS011;21057;51.024;7.540;2022-09-30T13:55:16;20.48;;;19.08;;
15454;SDS011;21057;51.024;7.540;2022-09-30T13:57:50;19.50;;;18.30;;
15454;SDS011;21057;51.024;7.540;2022-09-30T14:00:33;20.08;;;18.77;;
15454;SDS011;21057;51.024;7.540;2022-09-30T14:03:17;19.67;;;18.48;;
15454;SDS011;21057;51.024;7.540;2022-09-30T14:06:01;19.50;;;18.30;;
15454;SDS011;21057;51.024;7.540;2022-09-30T14:08:47;19.67;;;18.48;;
15454;SDS011;21057;51.024;7.540;2022-09-30T14:11:34;18.88;;;17.58;;
15454;SDS011;21057;51.024;7.540;2022-09-30T14:14:24;18.92;;;17.63;;
15454;SDS011;21057;51.024;7.540;2022-09-30T14:17:17;19.23;;;17.92;;
15454;SDS011;21057;51.024;7.540;2022-09-30T14:22:50;19.25;;;17.90;;
15454;SDS011;21057;51.024;7.540;2022-09-30T14:25:18;19.05;;;17.85;;
15454;SDS011;21057;51.024;7.540;2022-09-30T14:27:54;19.17;;;17.98;;
15454;SDS011;21057;51.024;7.540;2022-09-30T14:30:28;19.50;;;18.30;;
15454;SDS011;21057;51.024;7.540;2022-09-30T14:33:02;20.27;;;18.88;;
15454;SDS011;21057;51.024;7.540;2022-09-30T14:35:36;19.02;;;17.77;;
15454;SDS011;21057;51.024;7.540;2022-09-30T14:38:06;19.45;;;18.05;;
15454;SDS011;21057;51.024;7.540;2022-09-30T14:40:38;19.10;;;17.92;;
15454;SDS011;21057;51.024;7.540;2022-09-30T14:43:14;19.75;;;18.33;;
15454;SDS011;21057;51.024;7.540;2022-09-30T14:45:44;19.88;;;18.58;;
15454;SDS011;21057;51.024;7.540;2022-09-30T14:48:17;19.17;;;17.98;;
15454;SDS011;21057;51.024;7.540;2022-09-30T14:50:49;19.33;;;18.02;;
15454;SDS011;21057;51.024;7.540;2022-09-30T14:53:22;19.30;;;18.10;;
15454;SDS011;21057;51.024;7.540;2022-09-30T14:55:50;19.23;;;18.02;;
15454;SDS011;21057;51.024;7.540;2022-09-30T14:58:21;19.30;;;18.10;;
15454;SDS011;21057;51.024;7.540;2022-09-30T15:00:59;18.60;;;17.40;;
15454;SDS011;21057;51.024;7.540;2022-09-30T15:03:31;19.23;;;17.92;;
15454;SDS011;21057;51.024;7.540;2022-09-30T15:06:00;19.20;;;17.52;;
15454;SDS011;21057;51.024;7.540;2022-09-30T15:08:27;18.60;;;17.50;;
15454;SDS011;21057;51.024;7.540;2022-09-30T15:10:54;18.63;;;17.42;;
15454;SDS011;21057;51.024;7.540;2022-09-30T15:13:22;18.75;;;17.35;;
15454;SDS011;21057;51.024;7.540;2022-09-30T15:15:51;18.77;;;17.58;;
15454;SDS011;21057;51.024;7.540;2022-09-30T15:18:23;18.40;;;17.30;;
15454;SDS011;21057;51.024;7.540;2022-09-30T15:20:56;18.23;;;17.13;;